createdAt,value
2022-12-15T01:21:06.131Z,12.98
2022-12-15T01:23:39.169Z,12.43
2022-12-15T01:26:11.848Z,12.35
2022-12-15T01:28:45.351Z,12.50
2022-12-15T01:31:18.125Z,12.07
2022-12-15T01:33:52.268Z,11.60
2022-12-15T01:36:25.974Z,12.50
2022-12-15T01:38:58.281Z,12.58
2022-12-15T01:41:30.656Z,13.48
2022-12-15T01:44:23.866Z,12.50
2022-12-15T01:46:57.061Z,12.63
2022-12-15T01:49:30.250Z,13.10
2022-12-15T01:52:03.853Z,13.10
2022-12-15T01:54:52.951Z,12.10
2022-12-15T01:57:29.853Z,13.20
2022-12-15T02:00:02.792Z,12.33
2022-12-15T02:02:40.362Z,13.15
2022-12-15T02:05:12.297Z,12.10
2022-12-15T02:07:44.907Z,12.90
2022-12-15T02:10:17.194Z,13.70
2022-12-15T02:13:03.750Z,12.35
2022-12-15T02:15:52.599Z,12.23
2022-12-15T02:18:46.165Z,11.18
2022-12-15T02:21:26.162Z,12.23
2022-12-15T02:24:22.809Z,11.97
2022-12-15T02:27:12.091Z,11.70
2022-12-15T02:30:20.070Z,11.88
2022-12-15T02:33:06.101Z,13.32
2022-12-15T02:35:58.718Z,12.10
2022-12-15T02:38:35.073Z,11.65
2022-12-15T02:41:09.839Z,12.95
2022-12-15T02:43:42.267Z,11.28
2022-12-15T02:46:35.289Z,12.18
2022-12-15T02:49:24.685Z,12.20
2022-12-15T02:52:16.597Z,11.63
2022-12-15T02:55:11.558Z,11.90
2022-12-15T03:00:21.810Z,12.03
2022-12-15T03:02:55.631Z,11.85
2022-12-15T03:05:28.306Z,12.23
2022-12-15T03:08:01.511Z,11.18
2022-12-15T03:10:34.040Z,12.10
2022-12-15T03:13:06.656Z,10.78
2022-12-15T03:15:39.719Z,11.93
2022-12-15T03:18:12.510Z,11.90
2022-12-15T03:20:45.547Z,12.18
2022-12-15T03:23:17.866Z,11.70
2022-12-15T03:25:50.633Z,11.30
2022-12-15T03:28:23.227Z,11.65
2022-12-15T03:30:56.615Z,10.45
2022-12-15T03:33:29.553Z,10.55
2022-12-15T03:36:02.400Z,11.18
2022-12-15T03:38:35.178Z,11.05
2022-12-15T03:41:07.754Z,11.93
2022-12-15T03:43:40.262Z,10.55
2022-12-15T03:46:12.722Z,11.22
2022-12-15T03:48:45.387Z,10.68
2022-12-15T03:51:17.866Z,10.72
2022-12-15T03:53:50.206Z,10.50
2022-12-15T03:56:22.796Z,10.95
2022-12-15T03:58:55.492Z,10.70
2022-12-15T04:01:33.265Z,10.25
2022-12-15T04:04:06.324Z,10.78
2022-12-15T04:06:38.976Z,11.53
2022-12-15T04:09:11.612Z,11.28
2022-12-15T04:11:44.465Z,10.32
2022-12-15T04:14:16.895Z,11.80
2022-12-15T04:16:49.294Z,12.05
2022-12-15T04:19:39.969Z,11.22
2022-12-15T04:22:17.684Z,11.93
2022-12-15T04:25:05.222Z,11.53
2022-12-15T04:28:01.205Z,11.00
2022-12-15T04:30:48.999Z,10.85
2022-12-15T04:33:39.730Z,11.15
2022-12-15T04:36:30.865Z,11.28
2022-12-15T04:39:22.993Z,10.00
2022-12-15T04:42:13.309Z,10.03
2022-12-15T04:45:03.488Z,11.48
2022-12-15T04:47:54.386Z,9.50
2022-12-15T04:50:44.712Z,9.85
2022-12-15T04:53:36.558Z,10.00
2022-12-15T04:56:31.297Z,9.55
2022-12-15T04:59:21.488Z,10.15
2022-12-15T05:02:12.529Z,10.28
2022-12-15T05:05:02.880Z,10.08
2022-12-15T05:07:53.893Z,10.60
2022-12-15T05:10:44.584Z,10.68
2022-12-15T05:13:35.308Z,9.60
2022-12-15T05:16:26.179Z,9.95
2022-12-15T05:19:16.996Z,10.00
2022-12-15T05:22:07.448Z,10.60
2022-12-15T05:24:58.813Z,10.15
2022-12-15T05:27:49.293Z,9.98
2022-12-15T05:30:39.992Z,10.40
2022-12-15T05:33:12.917Z,10.50
2022-12-15T05:35:45.348Z,10.35
2022-12-15T05:38:18.681Z,10.85
2022-12-15T05:40:51.233Z,10.53
2022-12-15T05:43:26.521Z,10.05
2022-12-15T05:45:58.245Z,11.30
2022-12-15T05:48:31.135Z,9.98
2022-12-15T05:51:08.417Z,10.50
2022-12-15T05:53:41.721Z,10.30
2022-12-15T05:56:15.303Z,12.07
2022-12-15T05:58:48.348Z,12.95
2022-12-15T06:01:21.417Z,12.00
2022-12-15T06:03:54.058Z,10.80
2022-12-15T06:06:26.832Z,12.98
2022-12-15T06:09:00.158Z,11.15
2022-12-15T06:11:32.753Z,11.08
2022-12-15T06:14:05.573Z,11.60
2022-12-15T06:16:49.802Z,11.43
2022-12-15T06:21:44.537Z,11.65
2022-12-15T06:24:17.047Z,11.53
2022-12-15T06:26:50.147Z,11.85
2022-12-15T06:29:22.886Z,11.65
2022-12-15T06:31:55.386Z,12.05
2022-12-15T06:34:28.368Z,11.35
2022-12-15T06:37:00.825Z,12.95
2022-12-15T06:39:33.393Z,12.37
2022-12-15T06:42:06.071Z,13.55
2022-12-15T06:44:38.537Z,11.65
2022-12-15T06:47:11.473Z,12.03
2022-12-15T06:49:43.996Z,11.45
2022-12-15T06:52:16.477Z,13.13
2022-12-15T06:54:49.973Z,12.63
2022-12-15T06:57:22.936Z,13.48
2022-12-15T06:59:55.405Z,11.93
2022-12-15T07:02:29.709Z,13.38
2022-12-15T07:05:02.824Z,12.60
2022-12-15T07:07:35.314Z,12.80
2022-12-15T07:10:08.901Z,13.72
2022-12-15T07:12:41.831Z,13.35
2022-12-15T07:15:14.964Z,14.58
2022-12-15T07:17:47.516Z,12.85
2022-12-15T07:20:22.869Z,13.80
2022-12-15T07:22:54.923Z,13.15
2022-12-15T10:35:55.638Z,11.45
2022-12-15T10:38:42.701Z,11.70
2022-12-15T10:41:25.960Z,11.88
2022-12-15T10:43:58.469Z,10.95
2022-12-15T10:46:32.374Z,11.60
2022-12-15T10:49:15.942Z,11.68
2022-12-15T10:52:29.882Z,11.22
2022-12-15T10:55:02.321Z,12.40
2022-12-15T10:57:36.160Z,12.20
2022-12-15T11:00:21.206Z,12.30
2022-12-15T11:02:53.806Z,12.57
2022-12-15T11:05:26.741Z,12.13
2022-12-15T11:08:17.714Z,12.25
2022-12-15T11:11:15.584Z,12.60
2022-12-15T11:14:09.851Z,11.88
2022-12-15T11:16:55.066Z,13.17
2022-12-15T11:19:41.825Z,11.95
2022-12-15T11:22:46.644Z,13.50
2022-12-15T11:25:41.760Z,12.20
2022-12-15T11:28:24.502Z,13.53
2022-12-15T11:31:03.666Z,13.50
2022-12-15T11:33:36.483Z,13.85
2022-12-15T11:36:16.765Z,13.48
2022-12-15T11:38:57.666Z,13.32
2022-12-15T11:42:05.776Z,13.28
2022-12-15T11:44:55.107Z,13.30
2022-12-15T11:47:54.705Z,12.73
2022-12-15T11:51:03.994Z,11.80
2022-12-15T11:54:09.213Z,10.28
2022-12-15T11:59:31.473Z,12.23
2022-12-15T12:02:14.523Z,10.30
2022-12-15T12:05:17.602Z,11.03
2022-12-15T12:08:19.499Z,10.00
2022-12-15T12:11:18.410Z,8.68
2022-12-15T12:14:12.123Z,8.48
2022-12-15T12:17:16.348Z,8.03
2022-12-15T12:19:57.629Z,8.53
2022-12-15T12:25:20.611Z,8.55
2022-12-15T12:28:31.083Z,7.03
2022-12-15T12:31:04.491Z,7.15
2022-12-15T12:33:46.585Z,7.95
2022-12-15T12:36:20.570Z,7.92
2022-12-15T12:38:56.317Z,7.97
2022-12-15T12:41:51.720Z,6.75
2022-12-15T12:44:43.627Z,7.67
2022-12-15T12:47:23.384Z,7.65
2022-12-15T12:50:03.982Z,8.05
2022-12-15T12:52:38.261Z,8.33
2022-12-15T12:55:30.606Z,6.83
2022-12-15T12:58:02.923Z,7.55
2022-12-15T13:00:36.052Z,7.50
2022-12-15T13:03:16.781Z,8.35
2022-12-15T13:05:51.067Z,7.50
2022-12-15T13:08:31.115Z,7.87
2022-12-15T13:11:08.464Z,8.85
2022-12-15T13:13:51.068Z,8.98
2022-12-15T13:16:27.108Z,8.83
2022-12-15T13:19:08.607Z,8.28
2022-12-15T13:21:51.741Z,8.50
2022-12-15T13:24:37.591Z,9.15
2022-12-15T13:27:15.500Z,10.35
2022-12-15T13:30:13.417Z,9.58
2022-12-15T13:32:47.954Z,10.25
2022-12-15T13:35:34.686Z,10.58
2022-12-15T13:38:10.026Z,13.08
2022-12-15T13:40:54.319Z,12.68
2022-12-15T13:43:38.071Z,11.70
2022-12-15T13:46:20.724Z,12.95
2022-12-15T13:49:07.702Z,13.18
2022-12-15T13:51:51.632Z,12.63
2022-12-15T13:54:27.071Z,11.65
2022-12-15T13:57:15.742Z,12.23
2022-12-15T13:59:50.714Z,12.40
2022-12-15T14:02:35.946Z,12.98
2022-12-15T14:05:22.465Z,11.57
2022-12-15T14:07:59.482Z,12.55
2022-12-15T14:10:56.380Z,12.53
2022-12-15T14:13:31.905Z,12.35
2022-12-15T14:16:21.323Z,12.07
2022-12-15T14:19:15.423Z,11.97
2022-12-15T14:21:59.686Z,12.85
2022-12-15T14:24:39.512Z,13.53
2022-12-15T14:27:08.772Z,12.90
2022-12-15T14:29:41.363Z,12.40
2022-12-15T14:32:16.112Z,12.63
2022-12-15T14:34:50.702Z,13.62
2022-12-15T14:37:23.384Z,13.13
2022-12-15T14:39:56.008Z,13.05
2022-12-15T14:42:50.650Z,12.23
2022-12-15T14:45:29.352Z,12.68
2022-12-15T14:50:48.008Z,13.50
2022-12-15T14:53:21.090Z,12.35
2022-12-15T14:55:54.955Z,13.08
2022-12-15T14:58:35.887Z,13.40
2022-12-15T15:01:31.297Z,13.98
2022-12-15T15:06:40.833Z,13.25
2022-12-15T15:09:24.404Z,13.60
2022-12-15T15:12:16.360Z,14.18
2022-12-15T15:14:58.217Z,14.10
2022-12-15T15:17:53.553Z,13.95
2022-12-15T15:20:34.441Z,12.50
2022-12-15T15:23:18.537Z,14.00
2022-12-15T15:25:56.676Z,14.80
2022-12-15T15:28:32.392Z,12.68
2022-12-15T15:31:25.105Z,13.58
2022-12-15T15:33:59.628Z,15.20
2022-12-15T15:39:15.921Z,14.00
2022-12-15T15:41:48.407Z,13.53
2022-12-15T15:44:21.095Z,14.75
2022-12-15T15:46:54.404Z,12.95
2022-12-15T15:49:27.541Z,14.50
2022-12-15T15:52:01.904Z,14.35
2022-12-15T15:54:36.244Z,15.13
2022-12-15T15:57:12.217Z,15.68
2022-12-15T15:59:46.726Z,14.28
2022-12-15T16:02:19.398Z,15.60
2022-12-15T16:04:52.038Z,13.90
2022-12-15T16:07:28.435Z,15.23
2022-12-15T16:10:00.956Z,15.08
2022-12-15T19:21:30.264Z,25.15
2022-12-15T19:24:02.646Z,25.57
2022-12-15T19:26:35.122Z,25.23
2022-12-15T19:29:19.908Z,26.77
2022-12-15T19:31:52.648Z,23.92
2022-12-15T19:34:25.093Z,27.85
2022-12-15T19:36:58.123Z,28.83
2022-12-15T19:39:32.791Z,27.35
2022-12-15T19:42:29.479Z,27.42
2022-12-15T19:45:03.388Z,26.73
2022-12-15T19:47:38.355Z,23.87
2022-12-15T19:50:18.828Z,22.70
2022-12-15T19:52:54.892Z,23.07
2022-12-15T19:55:36.048Z,22.02
2022-12-15T19:58:27.380Z,22.67
2022-12-15T20:01:00.559Z,21.82
2022-12-15T20:03:35.763Z,22.07
2022-12-15T20:06:26.745Z,20.68
2022-12-15T20:09:00.908Z,21.57
2022-12-15T20:11:34.620Z,21.93
2022-12-15T20:14:18.272Z,21.55
2022-12-15T20:16:51.481Z,20.30
2022-12-15T20:19:23.892Z,21.17
2022-12-15T20:21:56.949Z,23.67
2022-12-15T20:24:29.404Z,24.00
2022-12-15T20:27:04.921Z,22.73
2022-12-15T20:29:36.200Z,25.97
2022-12-15T20:32:19.506Z,22.10
2022-12-15T20:34:53.263Z,24.75
2022-12-15T20:37:29.529Z,23.15
2022-12-15T20:40:02.654Z,22.75
2022-12-15T20:42:35.813Z,23.18
2022-12-15T20:45:30.305Z,22.05
2022-12-15T20:50:40.578Z,22.45
2022-12-15T20:53:20.688Z,20.85
2022-12-15T20:55:54.380Z,20.45
2022-12-15T20:58:32.896Z,18.45
2022-12-15T21:01:02.562Z,19.70
2022-12-15T21:03:36.746Z,19.42
2022-12-15T21:06:10.943Z,19.23
2022-12-15T21:08:43.279Z,18.83
2022-12-15T21:11:22.538Z,18.10
2022-12-15T21:13:58.932Z,19.45
2022-12-15T21:16:32.734Z,18.62
2022-12-15T21:19:22.374Z,19.85
2022-12-15T21:21:54.970Z,17.30
2022-12-15T21:24:28.722Z,19.15
2022-12-15T21:27:01.765Z,19.20
2022-12-15T21:29:34.378Z,18.42
2022-12-15T21:32:07.160Z,19.07
2022-12-15T21:34:39.689Z,18.52
2022-12-15T21:37:25.243Z,20.68
2022-12-15T21:39:58.274Z,20.12
2022-12-15T21:42:31.478Z,20.30
2022-12-15T21:45:04.155Z,21.20
2022-12-15T21:47:55.859Z,20.85
2022-12-15T21:50:28.731Z,21.00
2022-12-15T21:53:04.453Z,20.62
2022-12-15T21:55:39.790Z,20.15
2022-12-15T21:58:22.130Z,20.40
2022-12-15T22:00:54.545Z,20.40
2022-12-15T22:03:27.029Z,20.02
2022-12-15T22:05:59.733Z,21.93
2022-12-15T22:08:33.742Z,21.37
2022-12-15T22:11:10.114Z,21.48
2022-12-15T22:13:42.928Z,22.32
2022-12-15T22:16:16.154Z,21.90
2022-12-15T22:19:12.792Z,22.58
2022-12-15T22:21:45.291Z,23.07
2022-12-15T22:24:17.857Z,23.10
2022-12-15T22:26:50.427Z,22.93
2022-12-15T22:29:23.426Z,23.47
2022-12-15T22:31:56.510Z,22.27
2022-12-15T22:34:30.898Z,23.18
2022-12-15T22:39:36.329Z,21.10
2022-12-15T22:42:09.566Z,23.55
2022-12-15T22:44:42.325Z,23.62
2022-12-15T22:47:15.699Z,23.73
2022-12-15T22:49:48.263Z,22.42
2022-12-15T22:52:22.886Z,22.27
2022-12-15T22:57:29.271Z,23.00
2022-12-15T23:00:11.238Z,23.98
2022-12-15T23:02:46.287Z,23.25
2022-12-15T23:07:53.452Z,22.15
2022-12-15T23:10:46.189Z,22.62
2022-12-15T23:13:18.777Z,22.82
2022-12-15T23:16:08.811Z,24.80
2022-12-15T23:18:41.619Z,23.85
2022-12-15T23:21:14.653Z,23.62
2022-12-15T23:23:48.230Z,24.30
2022-12-15T23:26:23.844Z,23.75
2022-12-15T23:29:15.510Z,23.40
2022-12-15T23:31:47.954Z,22.95
2022-12-15T23:34:20.708Z,24.15
2022-12-15T23:36:53.679Z,24.43
2022-12-15T23:39:26.360Z,23.52
2022-12-15T23:41:58.651Z,23.98
2022-12-15T23:44:32.326Z,26.07
2022-12-15T23:47:05.596Z,22.67
2022-12-15T23:49:38.477Z,24.37
2022-12-15T23:52:11.555Z,25.57
2022-12-15T23:54:44.168Z,23.45
2022-12-15T23:57:17.467Z,24.20
2022-12-15T23:59:50.865Z,24.27
